Time;durP1;ratioP1;P1;durP2;ratioP2;P2;SDS_P1;SDS_P2;PMS_P1;PMS_P2;Temp;Humidity;BMP_temperature;BMP_pressure;BME280_temperature;BME280_humidity;BME280_pressure;Samples;Min_cycle;Max_cycle;Signal;HPM_P1;HPM_P2
2024/04/06 00:02:16;;;;;;;2.85;1.33;;;23.70;52.10;;;;;;10236662;28;20043;-56
2024/04/06 00:07:19;;;;;;;1.90;1.33;;;23.60;52.10;;;;;;10231801;29;20051;-58
2024/04/06 00:12:21;;;;;;;1.83;1.20;;;23.50;52.30;;;;;;10239674;28;20105;-55
2024/04/06 00:17:23;;;;;;;3.78;1.30;;;23.30;52.90;;;;;;10234940;28;20081;-55
2024/04/06 00:22:26;;;;;;;1.35;1.00;;;23.40;52.30;;;;;;10238343;29;20047;-58
2024/04/06 00:27:28;;;;;;;2.13;1.20;;;23.30;52.70;;;;;;10233943;29;20054;-59
2024/04/06 00:32:29;;;;;;;2.03;1.15;;;23.20;52.90;;;;;;10233768;29;20168;-56
2024/04/06 00:37:32;;;;;;;1.80;1.17;;;23.20;53.00;;;;;;10234933;29;20080;-57
2024/04/06 00:42:34;;;;;;;2.58;1.40;;;23.10;53.00;;;;;;10229768;28;20589;-54
2024/04/06 00:47:36;;;;;;;3.38;1.23;;;23.20;53.00;;;;;;10234374;28;20051;-56
2024/04/06 00:52:39;;;;;;;2.22;1.33;;;23.10;53.00;;;;;;10240287;28;20047;-59
2024/04/06 00:57:41;;;;;;;1.95;1.20;;;23.00;52.90;;;;;;10249787;28;20055;-58
2024/04/06 01:02:43;;;;;;;3.22;1.30;;;23.10;52.90;;;;;;10254769;28;20050;-59
2024/04/06 01:07:46;;;;;;;2.30;1.40;;;22.90;53.00;;;;;;10250906;28;20052;-60
2024/04/06 01:12:47;;;;;;;3.70;1.45;;;22.90;52.90;;;;;;10242855;28;20158;-60
2024/04/06 01:17:51;;;;;;;2.20;1.30;;;22.90;53.20;;;;;;10247210;28;20053;-59
2024/04/06 01:22:54;;;;;;;1.88;1.20;;;22.90;53.10;;;;;;10246224;28;20055;-60
2024/04/06 01:27:57;;;;;;;1.90;1.08;;;22.70;53.50;;;;;;10248570;28;20051;-59
2024/04/06 01:32:59;;;;;;;1.95;1.20;;;22.80;53.20;;;;;;10288105;28;20043;-58
2024/04/06 01:38:00;;;;;;;1.90;1.15;;;22.80;53.20;;;;;;10281914;28;20070;-57
2024/04/06 01:43:03;;;;;;;1.42;1.10;;;22.80;53.20;;;;;;10285382;28;20051;-60
2024/04/06 01:48:06;;;;;;;1.83;0.90;;;22.70;53.30;;;;;;10283841;28;20126;-60
2024/04/06 01:53:07;;;;;;;2.17;1.13;;;22.70;53.30;;;;;;10292079;28;20090;-59
2024/04/06 01:58:10;;;;;;;1.75;1.10;;;22.70;53.30;;;;;;10281607;28;20082;-59
2024/04/06 02:03:12;;;;;;;1.67;1.00;;;22.70;53.00;;;;;;10309237;28;20053;-59
2024/04/06 02:08:13;;;;;;;1.30;1.00;;;22.70;53.30;;;;;;10288864;28;20057;-55
2024/04/06 02:13:16;;;;;;;1.40;1.00;;;22.70;53.20;;;;;;10280217;28;20138;-54
2024/04/06 02:18:18;;;;;;;1.58;1.10;;;22.50;53.40;;;;;;10269842;28;20085;-55
2024/04/06 02:23:19;;;;;;;1.63;1.10;;;22.60;53.20;;;;;;10276321;28;20051;-56
2024/04/06 02:28:23;;;;;;;1.35;1.08;;;22.60;53.20;;;;;;10275347;28;20043;-59
2024/04/06 02:33:24;;;;;;;1.67;1.17;;;22.50;53.20;;;;;;10275670;28;20075;-54
2024/04/06 02:38:26;;;;;;;1.50;1.10;;;22.60;53.10;;;;;;10275905;28;20129;-56
2024/04/06 02:43:29;;;;;;;1.40;1.00;;;22.60;53.10;;;;;;10278618;28;20046;-58
2024/04/06 02:48:31;;;;;;;1.58;1.08;;;22.60;53.00;;;;;;10270046;28;20042;-56
2024/04/06 02:53:32;;;;;;;1.70;0.90;;;22.60;53.00;;;;;;10280971;28;20050;-60
2024/04/06 02:58:35;;;;;;;1.98;1.27;;;22.70;52.90;;;;;;10281329;28;20129;-57
2024/04/06 03:03:37;;;;;;;3.35;1.00;;;22.50;53.20;;;;;;10280967;28;20047;-58
2024/04/06 03:08:39;;;;;;;1.02;0.77;;;22.40;53.50;;;;;;10280718;28;20043;-59
2024/04/06 03:13:41;;;;;;;1.38;1.00;;;22.10;54.50;;;;;;10280647;28;20061;-59
2024/04/06 03:18:44;;;;;;;1.42;0.95;;;22.80;53.40;;;;;;10283628;28;20053;-60
2024/04/06 03:23:46;;;;;;;1.60;0.85;;;23.20;52.70;;;;;;10277120;28;20082;-58
2024/04/06 03:28:50;;;;;;;1.23;0.90;;;23.20;52.80;;;;;;10269465;28;20418;-56
2024/04/06 03:33:52;;;;;;;2.03;1.52;;;23.40;52.40;;;;;;10274244;28;20047;-55
2024/04/06 03:38:53;;;;;;;1.38;0.93;;;23.50;52.30;;;;;;10272888;28;20054;-54
2024/04/06 03:43:56;;;;;;;1.13;0.90;;;23.50;52.40;;;;;;10271216;28;20058;-55
2024/04/06 03:48:58;;;;;;;1.27;1.00;;;23.60;52.30;;;;;;10266487;28;20130;-54
2024/04/06 03:53:59;;;;;;;2.22;1.00;;;23.60;52.30;;;;;;10280614;28;20053;-57
2024/04/06 03:59:02;;;;;;;1.10;0.80;;;23.60;52.30;;;;;;10275039;28;20043;-58
2024/04/06 04:04:04;;;;;;;1.30;0.90;;;23.70;52.50;;;;;;10275169;28;20053;-55
2024/04/06 04:09:06;;;;;;;1.65;0.90;;;23.50;52.80;;;;;;10280208;28;20078;-54
2024/04/06 04:14:09;;;;;;;1.45;0.82;;;23.70;52.50;;;;;;10275728;28;20388;-54
2024/04/06 04:19:11;;;;;;;1.50;0.95;;;23.80;52.50;;;;;;10272198;28;20139;-55
2024/04/06 04:24:13;;;;;;;1.70;0.95;;;23.70;52.60;;;;;;10281054;28;20499;-55
2024/04/06 04:29:16;;;;;;;0.93;0.82;;;23.60;53.00;;;;;;10277421;28;20077;-55
2024/04/06 04:34:17;;;;;;;1.10;1.00;;;23.60;53.10;;;;;;10276288;28;20038;-57
2024/04/06 04:39:19;;;;;;;2.03;0.93;;;23.80;53.10;;;;;;10278224;28;20047;-53
2024/04/06 04:44:22;;;;;;;1.15;0.82;;;23.80;53.10;;;;;;10274872;28;20055;-60
2024/04/06 04:49:25;;;;;;;1.35;0.90;;;23.80;53.20;;;;;;10272638;28;20055;-52
2024/04/06 04:54:26;;;;;;;1.20;0.80;;;23.80;53.30;;;;;;10274348;28;20086;-53
2024/04/06 04:59:29;;;;;;;1.30;0.80;;;23.80;53.30;;;;;;10273780;28;20051;-58
2024/04/06 05:04:31;;;;;;;1.25;0.90;;;23.90;53.20;;;;;;10278588;28;20130;-55
2024/04/06 05:09:33;;;;;;;1.00;0.80;;;24.00;53.20;;;;;;10269862;28;20126;-57
2024/04/06 05:14:36;;;;;;;1.10;0.70;;;23.90;53.30;;;;;;10278774;28;20395;-54
2024/04/06 05:19:38;;;;;;;0.75;0.70;;;24.10;53.20;;;;;;10273045;28;20102;-51
2024/04/06 05:24:40;;;;;;;1.20;0.82;;;24.00;53.10;;;;;;10270152;28;20047;-55
2024/04/06 05:29:43;;;;;;;1.55;0.70;;;24.00;53.50;;;;;;10277431;28;20081;-55
2024/04/06 05:34:44;;;;;;;0.80;0.80;;;23.90;53.60;;;;;;10277082;28;20426;-55
2024/04/06 05:39:46;;;;;;;0.75;0.60;;;24.10;53.50;;;;;;10271910;28;20405;-52
2024/04/06 05:44:49;;;;;;;1.73;1.20;;;24.00;53.60;;;;;;10280078;28;20606;-57
2024/04/06 05:49:51;;;;;;;2.05;1.60;;;24.00;53.60;;;;;;10266686;28;20057;-57
2024/04/06 05:54:52;;;;;;;2.75;1.58;;;24.10;54.40;;;;;;10240286;28;20046;-53
2024/04/06 05:59:55;;;;;;;3.33;1.50;;;24.10;54.30;;;;;;10249400;28;20054;-56
2024/04/06 06:04:57;;;;;;;4.15;1.30;;;24.10;54.40;;;;;;10250035;28;20043;-56
2024/04/06 06:09:58;;;;;;;1.90;1.20;;;24.00;54.80;;;;;;10253460;28;20057;-57
2024/04/06 06:15:01;;;;;;;2.45;1.20;;;24.10;54.40;;;;;;10244146;28;20137;-54
2024/04/06 06:20:04;;;;;;;2.50;1.40;;;24.10;54.80;;;;;;10247739;28;20131;-52
2024/04/06 06:25:06;;;;;;;14.35;1.67;;;24.20;54.50;;;;;;10249428;28;20044;-56
2024/04/06 06:30:10;;;;;;;7.47;1.45;;;24.20;55.00;;;;;;10243788;28;20774;-52
2024/04/06 06:35:12;;;;;;;7.18;1.40;;;24.10;55.00;;;;;;10250316;28;20045;-55
2024/04/06 06:40:13;;;;;;;3.25;1.10;;;24.10;54.80;;;;;;10246255;28;20059;-57
2024/04/06 06:45:17;;;;;;;3.28;1.30;;;24.10;54.70;;;;;;10240201;28;20046;-56
2024/04/06 06:50:18;;;;;;;4.93;1.45;;;24.10;54.90;;;;;;10250517;28;20073;-55
2024/04/06 06:55:20;;;;;;;3.35;1.40;;;24.10;55.30;;;;;;10246106;28;20043;-58
2024/04/06 07:00:23;;;;;;;3.28;1.33;;;24.10;55.10;;;;;;10249499;28;20047;-53
2024/04/06 07:05:24;;;;;;;5.00;1.27;;;24.20;54.20;;;;;;10248747;28;20036;-55
2024/04/06 07:10:26;;;;;;;4.78;1.40;;;24.10;53.90;;;;;;10248586;28;20047;-56
2024/04/06 07:15:29;;;;;;;5.40;2.10;;;24.10;53.20;;;;;;10243450;28;20047;-58
2024/04/06 07:20:31;;;;;;;5.75;2.03;;;24.10;53.30;;;;;;10247788;28;20973;-57
2024/04/06 07:25:33;;;;;;;3.58;1.63;;;24.20;53.10;;;;;;10249895;28;20130;-58
2024/04/06 07:30:42;;;;;;;6.20;1.90;;;24.30;53.00;;;;;;10241210;28;20043;-55
2024/04/06 07:35:45;;;;;;;6.70;1.80;;;24.30;53.20;;;;;;10248521;28;20127;-56
2024/04/06 07:40:47;;;;;;;7.15;2.20;;;24.30;53.50;;;;;;10244931;28;20051;-56
2024/04/06 07:45:51;;;;;;;5.80;2.13;;;24.10;54.60;;;;;;10247667;28;20143;-58
2024/04/06 07:50:52;;;;;;;7.40;2.30;;;24.20;54.30;;;;;;10246849;28;20046;-54
2024/04/06 07:55:57;;;;;;;3.97;2.05;;;24.20;53.80;;;;;;10246394;28;20047;-58
2024/04/06 08:01:03;;;;;;;5.20;2.10;;;24.20;53.30;;;;;;10251253;28;20130;-58
2024/04/06 08:06:06;;;;;;;7.95;2.25;;;24.20;53.90;;;;;;10254001;28;20074;-59
2024/04/06 08:11:07;;;;;;;7.47;2.65;;;24.30;53.20;;;;;;10245584;28;20106;-58
2024/04/06 08:16:10;;;;;;;6.15;2.13;;;24.40;52.50;;;;;;10247382;28;20055;-59
2024/04/06 08:21:12;;;;;;;8.25;2.58;;;24.40;52.60;;;;;;10253153;28;20503;-55
2024/04/06 08:26:14;;;;;;;6.70;2.75;;;24.30;52.80;;;;;;10247768;28;20471;-58
2024/04/06 08:31:17;;;;;;;6.22;2.38;;;24.40;52.70;;;;;;10229166;28;20051;-56
2024/04/06 08:36:18;;;;;;;5.80;2.30;;;24.40;52.70;;;;;;10241331;28;20492;-55
2024/04/06 08:41:20;;;;;;;5.10;2.00;;;24.40;52.30;;;;;;10244890;28;20058;-57
2024/04/06 08:46:23;;;;;;;4.65;1.83;;;24.50;52.50;;;;;;10243148;28;20082;-56
2024/04/06 08:51:25;;;;;;;4.85;2.15;;;24.50;52.70;;;;;;10245395;28;20067;-55
2024/04/06 08:56:27;;;;;;;3.28;2.00;;;24.50;52.80;;;;;;10240215;28;20158;-53
2024/04/06 09:01:30;;;;;;;12.13;2.20;;;24.50;53.10;;;;;;10247120;28;20135;-58
2024/04/06 09:06:33;;;;;;;5.63;2.40;;;24.40;53.70;;;;;;10242205;28;20069;-55
2024/04/06 09:11:34;;;;;;;7.22;2.75;;;24.30;52.40;;;;;;10240610;29;20130;-56
2024/04/06 09:16:38;;;;;;;6.35;2.30;;;24.20;52.80;;;;;;10240325;28;20130;-57
2024/04/06 09:21:40;;;;;;;5.47;2.40;;;24.30;52.20;;;;;;10247821;28;20051;-54
2024/04/06 09:26:42;;;;;;;7.82;3.10;;;24.10;53.10;;;;;;10246347;28;20048;-60
2024/04/06 09:31:48;;;;;;;6.38;2.92;;;23.90;53.10;;;;;;10238438;28;20086;-57
2024/04/06 09:36:50;;;;;;;6.57;2.45;;;24.00;53.30;;;;;;10238308;28;20047;-58
2024/04/06 09:41:52;;;;;;;4.97;2.80;;;24.20;53.90;;;;;;10243703;28;20059;-54
2024/04/06 09:46:55;;;;;;;6.60;2.90;;;24.10;53.90;;;;;;10242470;28;20047;-57
2024/04/06 09:51:57;;;;;;;5.72;2.58;;;24.10;53.80;;;;;;10250757;28;20496;-54
2024/04/06 09:56:59;;;;;;;9.98;2.40;;;24.30;53.70;;;;;;10250948;28;20047;-56
2024/04/06 10:02:02;;;;;;;8.10;2.22;;;24.50;53.90;;;;;;10248501;28;20466;-55
2024/04/06 10:07:05;;;;;;;7.65;2.25;;;24.40;54.50;;;;;;10244399;29;20159;-55
2024/04/06 10:12:08;;;;;;;6.97;2.83;;;24.30;55.00;;;;;;10238519;28;20199;-56
2024/04/06 10:17:15;;;;;;;4.18;2.30;;;24.40;55.20;;;;;;10229277;29;20103;-53
2024/04/06 10:22:24;;;;;;;6.05;2.03;;;24.40;55.30;;;;;;10232541;28;20511;-55
2024/04/06 10:27:28;;;;;;;4.93;2.40;;;24.50;55.20;;;;;;10242065;28;20085;-56
2024/04/06 10:32:31;;;;;;;2.85;1.55;;;24.50;54.90;;;;;;10248257;28;20071;-56
2024/04/06 10:37:36;;;;;;;3.22;1.90;;;24.60;54.70;;;;;;10248150;28;20047;-57
2024/04/06 10:42:39;;;;;;;4.10;2.08;;;24.70;54.40;;;;;;10244338;29;20454;-55
2024/04/06 10:47:42;;;;;;;3.70;1.77;;;24.60;54.40;;;;;;10229455;28;20043;-55
2024/04/06 10:52:44;;;;;;;3.83;2.05;;;24.80;54.20;;;;;;10230815;29;20047;-58
2024/04/06 10:57:46;;;;;;;4.55;2.22;;;24.80;53.90;;;;;;10228685;28;20051;-53
2024/04/06 11:02:48;;;;;;;3.75;1.73;;;24.60;54.00;;;;;;10234307;28;20512;-57
2024/04/06 11:07:50;;;;;;;4.45;1.80;;;24.60;54.20;;;;;;10237586;28;20451;-56
2024/04/06 11:12:52;;;;;;;4.85;1.70;;;24.90;53.70;;;;;;10224092;28;20155;-55
2024/04/06 11:17:55;;;;;;;2.45;1.50;;;24.70;53.80;;;;;;10223135;28;20051;-53
2024/04/06 11:22:56;;;;;;;2.30;1.75;;;24.80;53.60;;;;;;10219654;28;20560;-55
2024/04/06 11:27:58;;;;;;;3.97;1.83;;;24.80;53.20;;;;;;10217911;29;20464;-51
2024/04/06 11:33:03;;;;;;;2.35;1.60;;;24.90;53.20;;;;;;10216010;28;20062;-56
2024/04/06 11:38:04;;;;;;;2.97;1.80;;;24.90;52.60;;;;;;10238504;28;20046;-58
2024/04/06 11:43:06;;;;;;;1.95;1.58;;;25.00;52.20;;;;;;10226510;28;20134;-55
2024/04/06 11:48:10;;;;;;;3.70;1.50;;;25.00;52.00;;;;;;10233622;28;20122;-55
2024/04/06 11:53:14;;;;;;;2.03;1.27;;;24.90;51.80;;;;;;10238289;28;20443;-57
2024/04/06 11:58:15;;;;;;;2.72;1.15;;;24.90;51.70;;;;;;10227556;28;20130;-55
2024/04/06 12:03:18;;;;;;;7.47;1.50;;;25.00;51.30;;;;;;10225725;29;20648;-55
2024/04/06 12:08:20;;;;;;;6.60;1.85;;;25.10;50.50;;;;;;10227098;28;20510;-54
2024/04/06 12:13:21;;;;;;;7.60;1.20;;;25.10;50.90;;;;;;10234967;28;20527;-54
2024/04/06 12:18:24;;;;;;;2.30;1.02;;;25.10;50.00;;;;;;10236389;28;20496;-57
2024/04/06 12:23:26;;;;;;;2.10;1.10;;;25.00;50.10;;;;;;10234584;28;20514;-55
2024/04/06 12:28:28;;;;;;;2.00;1.00;;;25.00;49.50;;;;;;10240286;28;20047;-53
2024/04/06 12:33:31;;;;;;;2.50;1.10;;;25.20;49.20;;;;;;10223317;28;20066;-54
2024/04/06 12:38:33;;;;;;;2.45;1.10;;;25.20;48.90;;;;;;10226542;28;20035;-57
2024/04/06 12:43:36;;;;;;;3.58;1.25;;;25.10;49.10;;;;;;10228711;28;20050;-56
2024/04/06 12:48:39;;;;;;;3.47;1.40;;;25.20;49.20;;;;;;10243134;28;20035;-57
2024/04/06 12:53:40;;;;;;;6.28;1.20;;;25.10;49.90;;;;;;10238688;28;20056;-54
2024/04/06 12:58:43;;;;;;;3.28;1.10;;;25.30;49.60;;;;;;10252860;28;20543;-54
2024/04/06 13:03:46;;;;;;;3.95;1.02;;;25.30;49.60;;;;;;10252961;28;20661;-55
2024/04/06 13:08:48;;;;;;;1.33;0.80;;;25.50;49.40;;;;;;10245281;29;20551;-56
2024/04/06 13:13:50;;;;;;;2.25;1.00;;;25.40;49.60;;;;;;10285694;28;20539;-53
2024/04/06 13:18:53;;;;;;;2.97;1.00;;;25.40;49.60;;;;;;10282209;28;20660;-52
2024/04/06 13:23:55;;;;;;;2.05;0.98;;;25.50;49.40;;;;;;10284154;28;20541;-55
2024/04/06 13:28:57;;;;;;;1.88;1.10;;;25.50;49.00;;;;;;10232738;28;20052;-53
2024/04/06 13:34:00;;;;;;;3.08;1.17;;;25.50;48.90;;;;;;10242662;28;20138;-53
2024/04/06 13:39:06;;;;;;;1.98;1.30;;;25.50;49.00;;;;;;10242856;28;20055;-52
2024/04/06 13:44:07;;;;;;;1.77;1.00;;;25.40;49.10;;;;;;10250494;28;20047;-57
2024/04/06 13:49:12;;;;;;;2.28;1.10;;;25.50;48.90;;;;;;10231089;28;20067;-54
2024/04/06 13:54:14;;;;;;;1.55;1.10;;;25.60;48.70;;;;;;10248146;28;20063;-56
2024/04/06 13:59:15;;;;;;;1.63;1.20;;;25.40;48.80;;;;;;10239558;28;20048;-54
2024/04/06 14:04:18;;;;;;;2.92;1.10;;;25.50;48.60;;;;;;10234179;29;20047;-56
2024/04/06 14:09:25;;;;;;;3.50;1.05;;;25.50;48.60;;;;;;10232568;28;20051;-54
2024/04/06 14:14:29;;;;;;;1.13;1.00;;;25.60;48.40;;;;;;10250134;29;20051;-52
2024/04/06 14:19:33;;;;;;;1.92;1.02;;;25.50;48.40;;;;;;10243536;28;20051;-56
2024/04/06 14:24:36;;;;;;;1.83;1.00;;;25.40;48.50;;;;;;10241531;28;20051;-53
2024/04/06 14:29:37;;;;;;;2.35;1.02;;;25.40;48.60;;;;;;10237291;29;20043;-56
2024/04/06 14:34:40;;;;;;;3.55;1.00;;;25.20;48.70;;;;;;10242990;28;20073;-54
2024/04/06 14:39:42;;;;;;;0.80;0.80;;;25.30;48.60;;;;;;10234347;29;20054;-57
2024/04/06 14:44:43;;;;;;;1.70;0.90;;;25.20;48.60;;;;;;10231324;29;20082;-54
2024/04/06 14:49:46;;;;;;;2.22;0.90;;;25.20;48.80;;;;;;10236319;28;20047;-53
2024/04/06 14:54:51;;;;;;;2.47;0.90;;;25.30;48.70;;;;;;10240023;29;20067;-53
2024/04/06 14:59:53;;;;;;;1.38;0.82;;;25.40;49.40;;;;;;10238002;28;20062;-56
2024/04/06 15:04:57;;;;;;;1.10;1.00;;;25.30;48.80;;;;;;10240980;28;20055;-55
2024/04/06 15:09:58;;;;;;;1.45;0.90;;;25.20;48.90;;;;;;10244754;28;20054;-55
2024/04/06 15:15:00;;;;;;;1.63;1.00;;;25.10;49.10;;;;;;10250774;28;20142;-54
2024/04/06 15:20:10;;;;;;;1.45;0.70;;;25.20;49.20;;;;;;10235348;28;20756;-55
2024/04/06 15:25:12;;;;;;;3.63;0.80;;;25.20;49.20;;;;;;10245696;28;20170;-53
2024/04/06 15:30:20;;;;;;;1.38;0.95;;;25.30;49.00;;;;;;10248903;29;20106;-55
2024/04/06 15:35:22;;;;;;;3.53;0.90;;;25.20;49.20;;;;;;10242252;29;20058;-52
2024/04/06 15:40:24;;;;;;;1.73;1.00;;;25.30;49.30;;;;;;10241279;28;20056;-57
2024/04/06 15:45:26;;;;;;;1.05;0.80;;;25.40;48.90;;;;;;10232848;29;20142;-57
2024/04/06 15:50:29;;;;;;;2.08;0.70;;;25.30;49.20;;;;;;10228560;28;20044;-56
2024/04/06 15:55:32;;;;;;;1.85;0.80;;;25.40;49.10;;;;;;10229568;28;20139;-55
2024/04/06 16:00:34;;;;;;;1.92;1.00;;;25.40;49.00;;;;;;10225863;28;20211;-55
2024/04/06 16:05:37;;;;;;;1.38;0.82;;;25.30;49.30;;;;;;10230358;29;20039;-56
2024/04/06 16:10:38;;;;;;;0.93;0.82;;;25.30;49.30;;;;;;10238227;28;20062;-58
2024/04/06 16:15:40;;;;;;;1.00;0.90;;;25.30;49.30;;;;;;10238143;28;20059;-56
2024/04/06 16:20:43;;;;;;;1.17;0.90;;;25.20;48.90;;;;;;10252839;28;20051;-55
2024/04/06 16:25:44;;;;;;;2.75;1.25;;;25.20;48.80;;;;;;10275680;28;20039;-55
2024/04/06 16:30:49;;;;;;;2.13;1.20;;;25.30;48.10;;;;;;10276894;28;20058;-54
2024/04/06 16:35:52;;;;;;;1.30;1.17;;;25.50;47.60;;;;;;10273578;28;20061;-56
2024/04/06 16:40:53;;;;;;;1.40;1.30;;;25.40;47.80;;;;;;10276481;28;20055;-53
2024/04/06 16:45:55;;;;;;;2.42;1.38;;;25.40;48.00;;;;;;10274418;28;20039;-56
2024/04/06 16:50:58;;;;;;;2.45;1.60;;;25.40;48.00;;;;;;10274509;28;20428;-55
2024/04/06 16:56:00;;;;;;;1.95;1.42;;;25.50;47.80;;;;;;10274472;28;20612;-55
2024/04/06 17:01:01;;;;;;;2.63;1.50;;;25.50;47.80;;;;;;10273756;28;20050;-51
2024/04/06 17:06:05;;;;;;;3.58;1.80;;;25.40;47.90;;;;;;10253532;28;20062;-53
2024/04/06 17:11:08;;;;;;;2.28;1.50;;;25.50;47.80;;;;;;10239183;28;20120;-55
2024/04/06 17:16:10;;;;;;;3.22;1.50;;;25.60;47.70;;;;;;10236934;28;20039;-54
2024/04/06 17:21:13;;;;;;;7.53;1.45;;;25.50;47.90;;;;;;10222288;29;20053;-57
2024/04/06 17:26:14;;;;;;;5.25;1.90;;;25.20;48.90;;;;;;10226884;28;20091;-56
2024/04/06 17:31:16;;;;;;;7.43;2.05;;;25.30;49.00;;;;;;10229886;28;20500;-55
2024/04/06 17:36:19;;;;;;;5.28;2.22;;;25.20;49.60;;;;;;10237500;28;20047;-57
2024/04/06 17:41:21;;;;;;;8.07;2.38;;;25.30;49.30;;;;;;10240781;28;20480;-58
2024/04/06 17:46:23;;;;;;;7.70;2.53;;;25.50;48.80;;;;;;10241864;28;20535;-57
2024/04/06 17:51:26;;;;;;;5.65;2.22;;;25.20;49.20;;;;;;10242510;28;20043;-57
2024/04/06 17:56:27;;;;;;;3.95;2.30;;;25.20;49.20;;;;;;10236864;28;20126;-58
2024/04/06 18:01:30;;;;;;;4.05;2.75;;;25.50;48.60;;;;;;10249870;28;20055;-58
2024/04/06 18:06:33;;;;;;;3.30;2.38;;;25.60;48.20;;;;;;10273832;28;20081;-58
2024/04/06 18:11:34;;;;;;;6.38;2.25;;;25.70;48.10;;;;;;10281546;28;20051;-58
2024/04/06 18:16:36;;;;;;;3.30;2.17;;;25.50;48.20;;;;;;10287553;28;20062;-55
2024/04/06 18:21:39;;;;;;;4.25;2.40;;;25.40;48.10;;;;;;10271548;28;20050;-57
2024/04/06 18:26:40;;;;;;;5.45;2.72;;;25.60;48.00;;;;;;10284259;28;20051;-57
2024/04/06 18:31:42;;;;;;;6.70;2.92;;;25.90;47.60;;;;;;10279054;28;20062;-57
2024/04/06 18:36:45;;;;;;;4.78;2.40;;;25.70;48.40;;;;;;10282270;28;20151;-59
2024/04/06 18:41:46;;;;;;;7.00;2.72;;;25.70;48.10;;;;;;10283136;28;20080;-58
2024/04/06 18:46:48;;;;;;;6.68;3.00;;;25.70;48.10;;;;;;10282646;28;20046;-58
2024/04/06 18:51:51;;;;;;;3.88;2.30;;;25.70;48.50;;;;;;10285597;28;20047;-57
2024/04/06 18:56:53;;;;;;;3.50;2.22;;;25.60;48.90;;;;;;10262721;28;20419;-56
2024/04/06 19:01:56;;;;;;;6.28;2.38;;;25.70;49.10;;;;;;10248550;28;20055;-57
2024/04/06 19:06:59;;;;;;;5.72;2.40;;;25.60;49.00;;;;;;10245338;28;20050;-54
2024/04/06 19:12:02;;;;;;;4.20;2.10;;;25.70;49.00;;;;;;10284076;28;20046;-55
2024/04/06 19:17:04;;;;;;;4.80;2.45;;;25.50;49.50;;;;;;10274125;28;20559;-52
2024/04/06 19:22:07;;;;;;;3.60;1.90;;;25.50;49.40;;;;;;10282604;28;20419;-52
2024/04/06 19:27:09;;;;;;;3.60;1.85;;;25.40;49.70;;;;;;10247101;28;20431;-52
2024/04/06 19:32:10;;;;;;;3.03;1.95;;;24.90;51.10;;;;;;10232172;28;20493;-52
2024/04/06 19:37:13;;;;;;;7.10;2.40;;;24.90;51.40;;;;;;10229709;28;20058;-53
2024/04/06 19:42:15;;;;;;;4.05;2.35;;;24.90;51.30;;;;;;10234082;28;20050;-53
2024/04/06 19:47:17;;;;;;;3.92;2.03;;;24.90;51.10;;;;;;10225908;28;20043;-53
2024/04/06 19:52:20;;;;;;;4.50;1.90;;;24.80;51.80;;;;;;10230131;28;20468;-56
2024/04/06 19:57:22;;;;;;;4.95;2.58;;;24.70;51.90;;;;;;10227808;28;20078;-55
2024/04/06 20:02:24;;;;;;;4.80;2.47;;;24.90;51.80;;;;;;10225307;28;20047;-54
2024/04/06 20:07:27;;;;;;;4.65;2.78;;;24.80;52.10;;;;;;10225127;29;20408;-51
2024/04/06 20:12:29;;;;;;;4.50;3.10;;;24.90;51.70;;;;;;10218027;28;20049;-56
2024/04/06 20:17:30;;;;;;;3.50;2.78;;;24.90;51.80;;;;;;10223229;28;20138;-56
2024/04/06 20:27:53;;;;;;;6.25;4.20;;;24.80;52.10;;;;;;10225105;29;20478;-57
2024/04/06 20:32:55;;;;;;;7.07;4.38;;;24.90;51.70;;;;;;10230981;29;20559;-56
2024/04/06 20:37:57;;;;;;;7.97;4.38;;;24.90;51.60;;;;;;10228258;28;20142;-56
2024/04/06 20:43:00;;;;;;;7.03;4.20;;;25.10;51.60;;;;;;10225250;29;20073;-52
2024/04/06 20:48:02;;;;;;;5.95;4.50;;;25.10;51.40;;;;;;10223686;29;20043;-53
2024/04/06 20:53:07;;;;;;;7.38;5.20;;;25.20;51.20;;;;;;10231411;28;20051;-56
2024/04/06 20:58:09;;;;;;;7.20;4.90;;;25.20;51.20;;;;;;10225848;29;20536;-50
2024/04/06 21:03:10;;;;;;;7.18;5.60;;;25.10;51.10;;;;;;10228503;29;20039;-53
2024/04/06 21:08:13;;;;;;;7.43;5.88;;;25.20;51.30;;;;;;10232976;28;20058;-51
2024/04/06 21:13:15;;;;;;;8.60;6.60;;;25.10;51.30;;;;;;10226628;28;20049;-52
2024/04/06 21:18:17;;;;;;;11.18;6.65;;;25.10;51.40;;;;;;10234815;29;20493;-51
2024/04/06 21:23:20;;;;;;;9.95;7.60;;;25.20;51.20;;;;;;10232800;29;20146;-55
2024/04/06 21:28:21;;;;;;;10.13;7.93;;;25.00;51.40;;;;;;10237613;28;20071;-54
2024/04/06 21:33:23;;;;;;;10.60;8.43;;;25.00;51.50;;;;;;10235195;29;20047;-54
2024/04/06 21:38:26;;;;;;;10.98;9.10;;;25.00;51.50;;;;;;10239056;29;20043;-53
2024/04/06 21:43:28;;;;;;;12.57;9.73;;;24.90;51.60;;;;;;10230255;28;20047;-52
2024/04/06 21:48:29;;;;;;;12.55;10.45;;;24.90;51.60;;;;;;10233584;28;20049;-56
2024/04/06 21:53:34;;;;;;;13.02;10.43;;;24.70;51.90;;;;;;10229496;28;20047;-54
2024/04/06 21:58:35;;;;;;;18.33;13.25;;;24.80;52.20;;;;;;10234318;28;20055;-55
2024/04/06 22:03:37;;;;;;;16.98;14.27;;;24.80;52.50;;;;;;10233232;28;20130;-51
2024/04/06 22:08:40;;;;;;;19.00;14.93;;;24.90;52.50;;;;;;10236308;28;20043;-51
2024/04/06 22:13:41;;;;;;;18.88;13.90;;;24.60;53.50;;;;;;10234271;29;20058;-52
2024/04/06 22:18:43;;;;;;;17.92;14.68;;;24.50;53.50;;;;;;10241614;28;20043;-54
2024/04/06 22:23:46;;;;;;;17.48;14.30;;;24.70;53.40;;;;;;10232229;28;20055;-54
2024/04/06 22:28:48;;;;;;;17.75;13.80;;;24.70;53.90;;;;;;10237725;28;20149;-53
2024/04/06 22:33:49;;;;;;;16.10;13.75;;;24.70;53.20;;;;;;10236568;28;20058;-54
2024/04/06 22:38:53;;;;;;;19.95;15.40;;;24.70;53.20;;;;;;10234730;29;20158;-55
2024/04/06 22:43:54;;;;;;;18.13;14.68;;;24.80;52.80;;;;;;10235824;28;20062;-63
2024/04/06 22:48:56;;;;;;;21.48;15.32;;;24.60;53.10;;;;;;10240308;28;20288;-53
2024/04/06 22:53:59;;;;;;;16.85;14.57;;;24.60;53.30;;;;;;10238175;28;20415;-56
2024/04/06 22:59:00;;;;;;;17.27;14.90;;;24.60;53.20;;;;;;10230773;28;20067;-54
2024/04/06 23:04:02;;;;;;;17.92;15.25;;;24.70;53.10;;;;;;10234175;28;20127;-58
2024/04/06 23:09:05;;;;;;;19.63;15.20;;;24.80;52.60;;;;;;10231954;29;20043;-52
2024/04/06 23:14:07;;;;;;;19.02;15.40;;;24.70;53.00;;;;;;10237014;29;20507;-53
2024/04/06 23:19:09;;;;;;;17.20;14.95;;;24.70;52.80;;;;;;10240806;28;20043;-58
2024/04/06 23:24:11;;;;;;;18.15;14.88;;;24.70;52.80;;;;;;10239671;28;20154;-54
2024/04/06 23:29:13;;;;;;;18.92;16.00;;;24.70;52.90;;;;;;10230709;28;20043;-52
2024/04/06 23:34:15;;;;;;;16.88;14.52;;;24.70;52.60;;;;;;10232875;28;20172;-55
2024/04/06 23:39:18;;;;;;;18.88;15.40;;;24.80;52.40;;;;;;10235554;28;20126;-53
2024/04/06 23:44:19;;;;;;;17.70;14.73;;;24.80;52.40;;;;;;10231158;28;20524;-56
2024/04/06 23:49:21;;;;;;;16.52;14.40;;;24.70;52.50;;;;;;10229500;28;20135;-52
2024/04/06 23:54:24;;;;;;;20.73;14.95;;;24.80;52.40;;;;;;10236385;28;20055;-51
2024/04/06 23:59:25;;;;;;;17.58;15.57;;;24.70;52.40;;;;;;10223617;28;20048;-51
